Time;durP1;ratioP1;P1;durP2;ratioP2;P2;SDS_P1;SDS_P2;PMS_P1;PMS_P2;Temp;Humidity;BMP_temperature;BMP_pressure;BME280_temperature;BME280_humidity;BME280_pressure;Samples;Min_cycle;Max_cycle;Signal;HPM_P1;HPM_P2
2023/09/08 00:01:33;;;;;;;10.68;8.15;;;;;;;17.85;100.00;96865.19;5022384;28;20041;-70
2023/09/08 00:03:58;;;;;;;11.88;8.95;;;;;;;17.80;100.00;96871.16;5054629;28;20098;-69
2023/09/08 00:06:24;;;;;;;14.30;8.10;;;;;;;17.78;100.00;96875.13;5047442;28;21024;-69
2023/09/08 00:08:49;;;;;;;11.10;8.13;;;;;;;17.52;100.00;96868.25;5032850;28;20041;-69
2023/09/08 00:11:14;;;;;;;14.82;8.82;;;;;;;17.26;100.00;96874.38;5034323;28;20380;-69
2023/09/08 00:13:40;;;;;;;9.45;8.27;;;;;;;17.26;100.00;96869.63;5031477;28;20041;-68
2023/09/08 00:16:07;;;;;;;13.77;9.35;;;;;;;17.34;100.00;96867.59;5037187;28;20048;-70
2023/09/08 00:18:33;;;;;;;10.90;9.15;;;;;;;17.37;100.00;96864.78;5041401;28;20041;-70
2023/09/08 00:20:58;;;;;;;11.30;9.38;;;;;;;17.24;100.00;96855.41;5023914;28;20049;-70
2023/09/08 00:23:23;;;;;;;17.02;9.80;;;;;;;17.27;100.00;96862.91;5027732;28;20041;-68
2023/09/08 00:25:49;;;;;;;13.65;9.90;;;;;;;17.23;100.00;96858.56;5038873;28;20064;-69
2023/09/08 00:28:15;;;;;;;14.82;10.77;;;;;;;17.12;100.00;96851.13;4985183;28;1211152;-70
2023/09/08 00:30:40;;;;;;;12.20;10.05;;;;;;;17.05;100.00;96853.97;5040365;28;20040;-70
2023/09/08 00:33:08;;;;;;;12.43;9.30;;;;;;;17.04;100.00;96857.91;5028105;28;20041;-70
2023/09/08 00:35:34;;;;;;;16.10;9.88;;;;;;;17.15;100.00;96858.63;5036546;28;20045;-69
2023/09/08 00:38:00;;;;;;;18.42;10.18;;;;;;;17.22;100.00;96862.56;5042437;28;20045;-69
2023/09/08 00:40:27;;;;;;;12.90;9.15;;;;;;;17.25;100.00;96858.94;5032308;28;20055;-68
2023/09/08 00:42:53;;;;;;;12.95;9.32;;;;;;;17.23;100.00;96853.03;5042779;28;20581;-69
2023/09/08 00:45:18;;;;;;;11.48;8.18;;;;;;;17.22;100.00;96848.72;5035454;28;20041;-70
2023/09/08 00:47:43;;;;;;;15.50;9.52;;;;;;;17.25;100.00;96850.66;5027023;28;20575;-70
2023/09/08 00:50:09;;;;;;;11.90;9.32;;;;;;;17.18;100.00;96849.53;5039098;28;20036;-69
2023/09/08 00:52:35;;;;;;;17.98;10.38;;;;;;;16.88;100.00;96841.81;5023600;28;20044;-69
2023/09/08 00:55:00;;;;;;;15.68;10.05;;;;;;;16.72;100.00;96853.34;5033025;28;20041;-69
2023/09/08 00:57:26;;;;;;;13.32;10.10;;;;;;;16.61;100.00;96849.84;5033869;28;20075;-69
2023/09/08 00:59:53;;;;;;;12.93;10.98;;;;;;;16.41;100.00;96852.31;5035273;28;20518;-69
2023/09/08 01:02:19;;;;;;;16.00;10.82;;;;;;;16.46;100.00;96853.84;5041404;28;20033;-68
2023/09/08 01:04:45;;;;;;;14.57;10.10;;;;;;;16.62;100.00;96852.22;5028671;28;20042;-69
2023/09/08 01:07:11;;;;;;;13.65;11.48;;;;;;;16.75;100.00;96852.53;5032597;28;20037;-70
2023/09/08 01:09:37;;;;;;;21.10;11.73;;;;;;;16.73;100.00;96852.16;5056761;28;20033;-69
2023/09/08 01:12:05;;;;;;;12.77;9.60;;;;;;;16.73;100.00;96849.38;5032409;28;20056;-69
2023/09/08 01:14:31;;;;;;;15.25;9.90;;;;;;;16.77;100.00;96847.38;5039156;28;20138;-69
2023/09/08 01:16:56;;;;;;;12.95;10.23;;;;;;;16.89;100.00;96854.47;5027769;28;20060;-70
2023/09/08 01:19:22;;;;;;;12.35;9.80;;;;;;;16.86;100.00;96858.03;5027661;28;20073;-69
2023/09/08 01:22:06;;;;;;;15.38;10.73;;;;;;;16.89;100.00;96845.34;5031620;28;20041;-69
2023/09/08 01:24:51;;;;;;;14.93;9.70;;;;;;;16.86;100.00;96854.50;5029141;28;20049;-69
2023/09/08 01:27:19;;;;;;;21.67;11.48;;;;;;;16.86;100.00;96851.72;5022542;28;20106;-68
2023/09/08 01:29:45;;;;;;;13.13;9.57;;;;;;;16.84;100.00;96852.13;5040479;28;20065;-70
2023/09/08 01:32:11;;;;;;;18.23;10.63;;;;;;;16.86;100.00;96855.28;5015086;28;20037;-69
2023/09/08 01:34:39;;;;;;;12.32;9.60;;;;;;;16.86;100.00;96849.75;5036945;28;20053;-69
2023/09/08 01:37:06;;;;;;;12.25;9.35;;;;;;;16.83;100.00;96850.53;5030493;28;20450;-70
2023/09/08 01:39:32;;;;;;;13.60;9.30;;;;;;;16.81;100.00;96852.91;5028730;28;20053;-70
2023/09/08 01:41:57;;;;;;;12.07;9.65;;;;;;;16.78;100.00;96848.97;5032550;28;20099;-70
2023/09/08 01:44:22;;;;;;;13.95;10.57;;;;;;;16.68;100.00;96847.03;5022487;28;20064;-70
2023/09/08 01:46:48;;;;;;;12.10;9.30;;;;;;;16.61;100.00;96842.31;5031305;28;20038;-70
2023/09/08 01:49:13;;;;;;;16.17;10.07;;;;;;;16.67;100.00;96844.69;5033834;28;20037;-70
2023/09/08 01:51:39;;;;;;;13.18;10.48;;;;;;;16.65;100.00;96842.31;5038225;28;20052;-70
2023/09/08 01:54:04;;;;;;;13.63;10.18;;;;;;;16.67;100.00;96839.94;5041229;28;20099;-71
2023/09/08 01:56:30;;;;;;;14.45;9.52;;;;;;;16.65;100.00;96841.53;5024223;28;20045;-69
2023/09/08 01:58:55;;;;;;;12.57;9.75;;;;;;;16.65;100.00;96844.28;5032680;28;20519;-70
2023/09/08 02:01:20;;;;;;;14.05;9.85;;;;;;;16.67;100.00;96848.22;5022055;28;20033;-70
2023/09/08 02:03:46;;;;;;;11.55;9.32;;;;;;;16.62;100.00;96843.91;5025425;28;20056;-70
2023/09/08 02:06:11;;;;;;;11.90;9.07;;;;;;;16.57;100.00;96841.56;5019135;28;20063;-69
2023/09/08 02:08:37;;;;;;;13.38;9.43;;;;;;;16.44;100.00;96846.00;5023580;28;20038;-69
2023/09/08 02:11:02;;;;;;;14.45;9.90;;;;;;;16.39;100.00;96843.63;5023427;28;20472;-69
2023/09/08 02:13:28;;;;;;;10.57;8.63;;;;;;;16.18;100.00;96833.44;5037258;28;20052;-70
2023/09/08 02:15:53;;;;;;;9.80;8.15;;;;;;;16.14;100.00;96838.97;5032749;28;20048;-68
2023/09/08 02:18:19;;;;;;;11.48;8.98;;;;;;;15.89;100.00;96839.06;5024752;28;20048;-69
2023/09/08 02:20:44;;;;;;;11.18;9.02;;;;;;;15.62;100.00;96839.47;5023570;28;20099;-69
2023/09/08 02:23:10;;;;;;;11.15;8.27;;;;;;;15.72;100.00;96837.88;5029597;28;20713;-68
2023/09/08 02:25:35;;;;;;;11.00;9.30;;;;;;;15.86;100.00;96839.84;5044828;28;20049;-69
2023/09/08 02:28:01;;;;;;;12.50;9.38;;;;;;;16.03;100.00;96841.00;5042296;28;20040;-70
2023/09/08 02:30:26;;;;;;;13.20;9.77;;;;;;;16.16;100.00;96833.06;5038165;28;20044;-70
2023/09/08 02:32:51;;;;;;;12.88;9.90;;;;;;;16.23;100.00;96839.34;5041786;28;20487;-69
2023/09/08 02:35:17;;;;;;;14.20;8.88;;;;;;;16.22;100.00;96839.72;5039753;28;20128;-69
2023/09/08 02:37:42;;;;;;;15.23;9.20;;;;;;;16.23;100.00;96846.84;5035157;28;20102;-69
2023/09/08 02:40:07;;;;;;;13.07;9.25;;;;;;;16.03;100.00;96854.81;5027065;28;20044;-70
2023/09/08 02:42:33;;;;;;;16.13;9.98;;;;;;;15.83;100.00;96849.72;5036969;28;20399;-70
2023/09/08 02:44:58;;;;;;;11.75;9.88;;;;;;;15.70;100.00;96853.25;5016044;28;20049;-69
2023/09/08 02:47:24;;;;;;;11.50;9.50;;;;;;;15.66;100.00;96856.03;5033717;28;20047;-70
2023/09/08 02:49:49;;;;;;;11.90;9.15;;;;;;;15.70;100.00;96854.06;5034565;28;20400;-70
2023/09/08 02:52:15;;;;;;;13.20;9.93;;;;;;;15.70;100.00;96858.78;5031553;28;20040;-69
2023/09/08 02:54:40;;;;;;;14.70;10.60;;;;;;;15.55;100.00;96850.50;5030398;28;20037;-71
2023/09/08 02:57:05;;;;;;;13.43;10.43;;;;;;;15.42;100.00;96849.34;5022152;28;20061;-69
2023/09/08 02:59:31;;;;;;;13.25;10.40;;;;;;;15.34;100.00;96856.84;5040299;28;20139;-69
2023/09/08 03:01:56;;;;;;;11.07;9.05;;;;;;;15.32;100.00;96856.44;5016334;28;20046;-68
2023/09/08 03:04:21;;;;;;;11.23;9.30;;;;;;;15.37;100.00;96860.78;5031854;28;20964;-70
2023/09/08 03:06:47;;;;;;;16.42;10.35;;;;;;;15.35;100.00;96847.38;5033562;28;20451;-70
2023/09/08 03:09:12;;;;;;;14.52;10.45;;;;;;;15.24;100.00;96857.63;5026714;28;20037;-69
2023/09/08 03:11:38;;;;;;;14.18;10.63;;;;;;;15.15;100.00;96848.94;5042785;28;20048;-71
2023/09/08 03:14:03;;;;;;;14.20;9.43;;;;;;;15.08;100.00;96849.72;5029096;28;20547;-68
2023/09/08 03:16:28;;;;;;;15.48;10.15;;;;;;;14.99;100.00;96849.31;5026431;28;20639;-71
2023/09/08 03:18:54;;;;;;;15.77;10.30;;;;;;;14.90;100.00;96844.97;5062333;28;20037;-70
2023/09/08 03:21:19;;;;;;;14.82;10.05;;;;;;;15.05;100.00;96839.47;5030000;28;20037;-70
2023/09/08 03:23:45;;;;;;;13.60;10.57;;;;;;;15.24;100.00;96839.09;5042371;28;20033;-71
2023/09/08 03:26:11;;;;;;;13.27;10.38;;;;;;;15.37;100.00;96850.53;5026648;28;20099;-70
2023/09/08 03:28:38;;;;;;;15.57;9.82;;;;;;;15.48;100.00;96848.56;5029642;28;20454;-69
2023/09/08 03:31:05;;;;;;;15.23;9.52;;;;;;;15.57;100.00;96850.13;5028373;28;20041;-70
2023/09/08 03:33:31;;;;;;;12.75;9.65;;;;;;;15.62;100.00;96847.75;5032852;28;20048;-70
2023/09/08 03:35:56;;;;;;;14.10;9.65;;;;;;;15.57;100.00;96847.34;5041346;28;20068;-69
2023/09/08 03:38:22;;;;;;;17.50;10.75;;;;;;;15.31;100.00;96849.34;5029730;28;20053;-70
2023/09/08 03:40:48;;;;;;;15.75;10.15;;;;;;;15.28;100.00;96848.16;5043961;28;20064;-70
2023/09/08 03:43:14;;;;;;;13.35;9.10;;;;;;;15.28;100.00;96844.59;5026497;28;20045;-70
2023/09/08 03:45:39;;;;;;;12.65;9.65;;;;;;;15.34;100.00;96850.53;5026211;28;20033;-70
2023/09/08 03:48:05;;;;;;;12.52;9.23;;;;;;;15.44;100.00;96846.97;5029250;28;20041;-70
2023/09/08 03:50:31;;;;;;;12.95;9.23;;;;;;;15.49;100.00;96844.59;5035115;28;20037;-70
2023/09/08 03:52:56;;;;;;;12.52;9.60;;;;;;;15.53;100.00;96847.38;5024370;28;20632;-70
2023/09/08 03:55:22;;;;;;;11.27;9.07;;;;;;;15.47;100.00;96848.94;5032325;28;20332;-69
2023/09/08 03:57:47;;;;;;;12.13;9.40;;;;;;;15.37;100.00;96850.53;5029751;28;20128;-68
2023/09/08 04:00:19;;;;;;;12.48;9.25;;;;;;;15.21;100.00;96850.13;5021699;28;20045;-70
2023/09/08 04:02:45;;;;;;;12.05;8.45;;;;;;;15.22;100.00;96855.25;5035924;28;20033;-69
2023/09/08 04:05:10;;;;;;;14.52;10.15;;;;;;;15.15;100.00;96851.72;5029366;28;20372;-69
2023/09/08 04:07:36;;;;;;;17.75;11.30;;;;;;;14.87;100.00;96847.72;5026621;28;20157;-69
2023/09/08 04:10:02;;;;;;;12.52;9.90;;;;;;;14.90;100.00;96853.25;5036537;28;20123;-72
2023/09/08 04:12:30;;;;;;;15.90;10.17;;;;;;;15.07;100.00;96853.66;5019765;28;20051;-69
2023/09/08 04:14:56;;;;;;;12.38;9.65;;;;;;;15.09;100.00;96859.59;5028605;28;20049;-69
2023/09/08 04:17:21;;;;;;;12.48;9.57;;;;;;;15.12;100.00;96850.50;5014598;28;20281;-68
2023/09/08 04:19:47;;;;;;;13.48;9.55;;;;;;;15.13;100.00;96849.34;5021361;28;20046;-69
2023/09/08 04:22:12;;;;;;;11.48;9.82;;;;;;;15.10;100.00;96848.13;5030010;28;20164;-70
2023/09/08 04:24:37;;;;;;;13.18;8.88;;;;;;;14.99;100.00;96861.13;5037166;28;20056;-70
2023/09/08 04:27:03;;;;;;;16.58;9.60;;;;;;;15.00;100.00;96853.66;5018242;28;20105;-69
2023/09/08 04:29:29;;;;;;;12.27;9.23;;;;;;;15.01;100.00;96847.75;5029515;28;20041;-69
2023/09/08 04:31:55;;;;;;;11.43;8.50;;;;;;;15.04;100.00;96851.69;5019675;28;20041;-69
2023/09/08 04:34:20;;;;;;;15.02;9.55;;;;;;;15.03;100.00;96861.94;5024596;28;20084;-68
2023/09/08 04:36:45;;;;;;;11.35;8.98;;;;;;;15.07;100.00;96859.97;5028003;28;20092;-69
2023/09/08 04:39:11;;;;;;;13.65;9.13;;;;;;;15.09;100.00;96865.09;5017919;28;20094;-69
2023/09/08 04:41:37;;;;;;;10.60;8.23;;;;;;;15.00;100.00;96865.47;5023999;28;20050;-67
2023/09/08 04:44:04;;;;;;;11.75;9.52;;;;;;;15.06;100.00;96872.19;5018599;28;20056;-69
2023/09/08 04:46:29;;;;;;;12.57;9.00;;;;;;;14.99;100.00;96880.44;5026714;28;20044;-70
2023/09/08 04:48:55;;;;;;;13.10;9.52;;;;;;;14.91;100.00;96870.59;5025434;28;20065;-69
2023/09/08 04:51:20;;;;;;;16.15;9.80;;;;;;;14.98;100.00;96873.38;5027030;28;20128;-69
2023/09/08 04:53:45;;;;;;;14.15;8.75;;;;;;;15.05;100.00;96875.31;5020717;28;20052;-69
2023/09/08 04:56:13;;;;;;;12.93;9.30;;;;;;;15.10;100.00;96874.94;5025768;28;20045;-69
2023/09/08 04:58:38;;;;;;;12.68;9.60;;;;;;;14.98;100.00;96878.88;5027937;28;20048;-70
2023/09/08 05:01:05;;;;;;;11.18;8.23;;;;;;;14.94;100.00;96880.03;5020153;28;20132;-68
2023/09/08 05:03:30;;;;;;;12.57;8.88;;;;;;;15.03;100.00;96880.44;5035906;28;20100;-69
2023/09/08 05:05:56;;;;;;;10.90;8.95;;;;;;;15.14;100.00;96880.47;5038255;28;20614;-69
2023/09/08 05:08:21;;;;;;;11.65;8.45;;;;;;;15.19;100.00;96891.91;5029237;28;20419;-69
2023/09/08 05:10:47;;;;;;;11.18;8.02;;;;;;;15.24;100.00;96882.47;5022593;28;20147;-70
2023/09/08 05:13:12;;;;;;;12.75;9.18;;;;;;;15.12;100.00;96889.13;5029093;28;20053;-71
2023/09/08 05:15:39;;;;;;;12.93;9.75;;;;;;;15.03;100.00;96888.72;5022414;28;20187;-69
2023/09/08 05:18:05;;;;;;;16.88;9.43;;;;;;;15.24;100.00;96896.25;5025280;28;20041;-69
2023/09/08 05:20:30;;;;;;;12.77;8.35;;;;;;;15.75;100.00;96897.06;5038048;28;20060;-70
2023/09/08 05:22:55;;;;;;;14.02;9.35;;;;;;;16.10;100.00;96896.22;5044579;28;20528;-70
2023/09/08 05:25:21;;;;;;;10.75;8.35;;;;;;;16.63;100.00;96894.47;5033216;28;20040;-70
2023/09/08 05:27:46;;;;;;;13.05;9.05;;;;;;;17.35;100.00;96905.16;5054793;28;20052;-70
2023/09/08 05:30:12;;;;;;;9.98;8.63;;;;;;;17.86;100.00;96903.59;5044854;28;20384;-69
2023/09/08 05:32:38;;;;;;;16.42;8.18;;;;;;;18.15;100.00;96908.88;5044979;28;20530;-70
2023/09/08 05:35:03;;;;;;;12.38;7.53;;;;;;;18.33;100.00;96906.69;5041722;28;20041;-71
2023/09/08 05:37:29;;;;;;;11.63;7.80;;;;;;;18.82;100.00;96902.97;5038828;28;20044;-70
2023/09/08 05:39:54;;;;;;;10.95;7.45;;;;;;;19.48;100.00;96907.97;5042541;28;20044;-68
2023/09/08 05:42:20;;;;;;;12.68;8.23;;;;;;;20.07;100.00;96916.16;5036867;28;20049;-70
2023/09/08 05:44:47;;;;;;;14.25;6.65;;;;;;;20.73;100.00;96920.88;5037747;28;20063;-70
2023/09/08 05:47:13;;;;;;;9.32;7.25;;;;;;;20.91;96.25;96937.22;5033153;28;20045;-71
2023/09/08 05:49:38;;;;;;;10.10;7.15;;;;;;;20.77;99.84;96926.38;5045997;28;20052;-69
2023/09/08 05:52:04;;;;;;;11.73;8.00;;;;;;;21.27;95.40;96930.09;5041224;28;20072;-69
2023/09/08 05:54:30;;;;;;;15.20;7.28;;;;;;;21.26;93.24;96932.06;5028112;28;20499;-70
2023/09/08 05:56:55;;;;;;;12.60;7.22;;;;;;;21.34;91.99;96927.94;5033372;28;20674;-71
2023/09/08 05:59:20;;;;;;;10.57;7.43;;;;;;;21.87;87.76;96930.69;5027955;28;20049;-71
2023/09/08 06:01:46;;;;;;;9.77;6.38;;;;;;;22.90;83.96;96931.97;5038944;28;20045;-70
2023/09/08 06:04:11;;;;;;;9.00;7.03;;;;;;;23.98;74.58;96936.28;5030893;28;20037;-69
2023/09/08 06:06:37;;;;;;;8.68;6.47;;;;;;;24.91;69.38;96946.25;5032775;28;20041;-70
2023/09/08 06:09:02;;;;;;;9.85;6.43;;;;;;;25.66;64.88;96949.03;5033357;28;20040;-72
2023/09/08 06:11:28;;;;;;;11.77;7.18;;;;;;;26.06;60.22;96956.66;5019025;28;20057;-69
2023/09/08 06:13:58;;;;;;;11.05;6.75;;;;;;;26.66;58.00;96946.91;5032617;28;20045;-69
2023/09/08 06:16:24;;;;;;;8.18;6.57;;;;;;;26.41;58.05;96962.00;5017424;28;20163;-69
2023/09/08 06:18:49;;;;;;;9.75;6.53;;;;;;;26.39;56.47;96958.09;5029562;28;20120;-69
2023/09/08 06:21:15;;;;;;;12.02;6.40;;;;;;;26.62;58.35;96959.56;5026007;28;20040;-69
2023/09/08 06:23:40;;;;;;;8.90;6.45;;;;;;;27.53;55.18;96955.03;5029533;28;20420;-69
2023/09/08 06:26:05;;;;;;;9.98;6.30;;;;;;;27.97;53.99;96954.53;5035963;28;20068;-68
2023/09/08 06:28:31;;;;;;;8.10;6.53;;;;;;;28.49;52.39;96960.00;5036955;28;20056;-70
2023/09/08 06:30:56;;;;;;;8.15;6.63;;;;;;;28.34;49.86;96961.97;5027931;28;20077;-70
2023/09/08 06:33:22;;;;;;;13.40;6.60;;;;;;;29.03;48.61;96962.06;5051997;28;20510;-71
2023/09/08 06:35:48;;;;;;;10.68;6.35;;;;;;;29.31;48.04;96960.56;5044990;28;20056;-71
2023/09/08 06:38:13;;;;;;;9.20;5.90;;;;;;;29.41;46.35;96972.53;5046060;28;20025;-69
2023/09/08 06:40:39;;;;;;;9.70;6.30;;;;;;;28.68;48.78;96974.75;5041872;28;20045;-69
2023/09/08 06:43:05;;;;;;;9.30;6.70;;;;;;;29.55;46.85;96968.91;5043446;28;20492;-69
2023/09/08 06:45:30;;;;;;;11.55;7.20;;;;;;;29.61;44.30;96974.66;5032322;28;20454;-69
2023/09/08 06:47:55;;;;;;;12.85;6.90;;;;;;;29.61;45.11;96973.88;5031502;28;20037;-69
2023/09/08 06:50:22;;;;;;;11.52;7.60;;;;;;;28.12;48.63;96970.72;5029501;28;20597;-68
2023/09/08 06:52:49;;;;;;;10.15;7.95;;;;;;;28.25;50.16;96970.50;5034874;28;20045;-70
2023/09/08 06:55:16;;;;;;;10.13;6.88;;;;;;;28.83;48.62;96980.44;5025002;28;20111;-70
2023/09/08 06:57:44;;;;;;;8.45;6.65;;;;;;;30.14;46.39;96978.53;5021500;28;20048;-70
2023/09/08 07:00:13;;;;;;;9.83;6.70;;;;;;;30.69;44.88;96980.56;5026189;28;20527;-70
2023/09/08 07:02:39;;;;;;;10.70;6.22;;;;;;;30.81;42.74;96981.50;5028204;28;20043;-70
2023/09/08 07:05:08;;;;;;;9.80;7.82;;;;;;;26.94;53.00;96972.19;5021771;28;20033;-71
2023/09/08 07:07:36;;;;;;;12.02;8.82;;;;;;;24.16;68.57;96955.25;5043045;28;20041;-70
2023/09/08 07:10:05;;;;;;;12.73;7.33;;;;;;;24.85;70.85;96956.47;5032371;28;20512;-71
2023/09/08 07:12:31;;;;;;;11.35;8.18;;;;;;;25.87;65.36;96955.00;5032541;28;20391;-71
2023/09/08 07:14:57;;;;;;;11.07;8.52;;;;;;;25.51;67.67;96964.84;5042522;28;20121;-70
2023/09/08 07:17:25;;;;;;;11.05;8.50;;;;;;;24.13;75.12;96953.34;5029272;28;20762;-69
2023/09/08 07:19:50;;;;;;;15.43;9.05;;;;;;;26.19;64.73;96958.53;5038049;28;20522;-69
2023/09/08 07:22:16;;;;;;;11.88;7.53;;;;;;;28.32;55.68;96967.31;5030109;28;20053;-68
2023/09/08 07:24:42;;;;;;;10.38;7.40;;;;;;;28.29;53.67;96962.63;5026518;28;20095;-70
2023/09/08 07:27:07;;;;;;;10.27;7.95;;;;;;;27.30;58.06;96964.97;5033685;28;20037;-70
2023/09/08 07:29:33;;;;;;;8.63;6.38;;;;;;;27.80;58.22;96961.78;5033342;28;20048;-71
2023/09/08 07:31:58;;;;;;;13.73;8.15;;;;;;;26.47;62.89;96959.34;5033520;28;20160;-71
2023/09/08 07:34:24;;;;;;;10.90;8.95;;;;;;;24.91;70.93;96951.88;5021160;28;20562;-69
2023/09/08 07:36:49;;;;;;;12.95;8.25;;;;;;;25.94;69.35;96957.53;5038431;28;20041;-70
2023/09/08 07:39:15;;;;;;;10.00;7.35;;;;;;;27.70;60.25;96957.47;5049194;28;20049;-69
2023/09/08 07:41:40;;;;;;;13.35;8.05;;;;;;;29.05;53.52;96968.03;5033744;28;20135;-70
2023/09/08 07:44:06;;;;;;;19.33;12.98;;;;;;;31.02;47.66;96979.41;5034973;28;20037;-70
2023/09/08 07:46:32;;;;;;;11.60;6.35;;;;;;;28.88;52.10;96973.34;5029993;28;20056;-70
2023/09/08 07:48:59;;;;;;;11.82;7.50;;;;;;;28.45;52.88;96970.69;5015222;28;20033;-71
2023/09/08 07:51:25;;;;;;;9.30;7.57;;;;;;;26.24;60.20;96969.16;5019133;28;20375;-70
2023/09/08 07:53:50;;;;;;;11.60;7.82;;;;;;;25.28;67.72;96968.94;5033755;28;20036;-70
2023/09/08 07:56:15;;;;;;;12.48;7.72;;;;;;;25.93;69.64;96961.63;5028059;28;20052;-71
2023/09/08 07:58:41;;;;;;;8.27;6.68;;;;;;;28.72;56.60;96966.91;5036181;28;20045;-69
2023/09/08 08:01:06;;;;;;;10.57;7.63;;;;;;;26.77;61.19;96960.47;5037462;28;20057;-71
2023/09/08 08:03:34;;;;;;;11.75;8.15;;;;;;;27.71;58.77;96962.59;5026322;28;20040;-70
2023/09/08 08:06:00;;;;;;;14.18;7.80;;;;;;;29.05;53.89;96963.16;5033017;28;20043;-70
2023/09/08 08:08:25;;;;;;;11.65;7.18;;;;;;;28.39;53.42;96967.72;5032420;28;20478;-71
2023/09/08 08:10:51;;;;;;;9.25;7.70;;;;;;;28.39;55.63;96964.13;5035337;28;20037;-70
2023/09/08 08:13:16;;;;;;;8.48;6.57;;;;;;;29.40;51.98;96967.38;5036417;28;20045;-69
2023/09/08 08:15:42;;;;;;;13.98;7.65;;;;;;;31.14;45.93;96976.72;5040068;28;20047;-70
2023/09/08 08:18:09;;;;;;;10.93;6.65;;;;;;;31.97;43.71;96972.28;5029655;28;20462;-70
2023/09/08 08:20:35;;;;;;;11.23;7.28;;;;;;;31.68;44.32;96974.13;5035505;28;20086;-70
2023/09/08 08:23:05;;;;;;;7.88;6.78;;;;;;;31.71;43.32;96975.16;5037703;28;20060;-70
2023/09/08 08:25:31;;;;;;;13.82;7.70;;;;;;;32.55;41.81;96977.75;5025807;28;20397;-71
2023/09/08 08:27:58;;;;;;;9.65;6.85;;;;;;;33.11;41.07;96986.47;5027847;28;20194;-70
2023/09/08 08:30:24;;;;;;;11.65;6.55;;;;;;;33.29;40.75;96971.06;5019161;28;20049;-70
2023/09/08 08:32:51;;;;;;;11.85;7.68;;;;;;;33.77;39.04;96986.34;5056617;22;20184;-67
2023/09/08 08:35:17;;;;;;;12.82;6.63;;;;;;;33.69;38.95;96979.63;5034785;28;20049;-66
2023/09/08 08:37:42;;;;;;;11.00;6.43;;;;;;;32.43;41.06;96982.63;5032569;28;20049;-68
2023/09/08 08:40:11;;;;;;;9.38;6.25;;;;;;;31.43;43.45;96981.34;5032902;28;20483;-66
2023/09/08 08:42:36;;;;;;;10.37;6.60;;;;;;;27.52;53.85;96966.78;5034848;28;20049;-67
2023/09/08 08:45:03;;;;;;;10.65;6.90;;;;;;;28.13;54.17;96958.22;5048107;28;20068;-68
2023/09/08 08:47:29;;;;;;;11.52;8.27;;;;;;;26.20;61.53;96946.84;5054260;28;20041;-67
2023/09/08 08:49:58;;;;;;;12.85;8.25;;;;;;;25.85;66.56;96943.47;5056438;28;20075;-66
2023/09/08 08:52:24;;;;;;;10.05;7.07;;;;;;;28.01;58.89;96945.94;5027720;28;20930;-67
2023/09/08 08:54:49;;;;;;;8.13;6.80;;;;;;;30.25;50.62;96960.97;5047365;28;20134;-66
2023/09/08 08:57:15;;;;;;;7.57;6.35;;;;;;;31.40;46.38;96962.53;5037157;28;20494;-67
2023/09/08 08:59:43;;;;;;;9.60;6.20;;;;;;;32.34;43.01;96960.13;5051698;28;20056;-67
2023/09/08 09:02:11;;;;;;;12.50;6.55;;;;;;;32.23;43.80;96955.19;5047962;28;20156;-67
2023/09/08 09:04:38;;;;;;;10.15;7.07;;;;;;;28.40;52.75;96941.13;5056394;28;20051;-67
2023/09/08 09:07:06;;;;;;;10.63;7.25;;;;;;;30.75;47.58;96948.75;5052397;28;20065;-70
2023/09/08 09:09:31;;;;;;;9.82;6.28;;;;;;;32.10;43.99;96946.38;5052011;28;20126;-68
2023/09/08 09:11:57;;;;;;;12.15;7.25;;;;;;;33.01;42.16;96956.81;5036753;28;20064;-67
2023/09/08 09:14:23;;;;;;;12.48;7.55;;;;;;;33.22;41.15;96959.44;5044073;28;20612;-67
2023/09/08 09:16:49;;;;;;;15.93;8.30;;;;;;;32.13;43.46;96951.81;5047039;28;20049;-67
2023/09/08 09:19:31;;;;;;;10.85;7.03;;;;;;;32.68;42.14;96951.81;5032766;28;20140;-66
2023/09/08 09:21:58;;;;;;;9.18;6.70;;;;;;;32.29;42.91;96953.19;5040430;28;20046;-66
2023/09/08 09:24:40;;;;;;;9.85;6.80;;;;;;;32.78;43.87;96950.31;5046910;28;20049;-70
2023/09/08 09:27:07;;;;;;;10.70;7.18;;;;;;;33.05;43.76;96948.81;5039604;28;20045;-68
2023/09/08 09:29:33;;;;;;;9.82;6.60;;;;;;;33.37;43.33;96948.63;5035607;28;20041;-66
2023/09/08 09:32:07;;;;;;;12.27;7.10;;;;;;;32.86;43.93;96948.53;5035736;28;20064;-67
2023/09/08 09:34:34;;;;;;;10.52;6.85;;;;;;;33.19;44.15;96943.44;5044521;28;20045;-67
2023/09/08 09:36:59;;;;;;;11.85;6.60;;;;;;;32.89;44.28;96941.06;5051752;28;20736;-67
2023/09/08 09:39:26;;;;;;;12.27;8.25;;;;;;;32.82;44.20;96944.38;5021051;28;20143;-68
2023/09/08 09:41:56;;;;;;;8.93;7.18;;;;;;;32.63;45.36;96939.19;5031126;28;20049;-67
2023/09/08 09:44:23;;;;;;;9.73;7.35;;;;;;;32.44;46.27;96941.66;5044058;28;20056;-67
2023/09/08 09:46:50;;;;;;;12.40;7.18;;;;;;;31.76;47.36;96938.41;5039630;28;20063;-68
2023/09/08 09:49:19;;;;;;;8.52;7.13;;;;;;;31.99;46.64;96935.72;5033296;28;20038;-68
2023/09/08 09:51:50;;;;;;;13.98;7.63;;;;;;;32.08;46.74;96935.53;5055766;28;20055;-67
2023/09/08 09:54:16;;;;;;;13.10;7.47;;;;;;;32.06;46.61;96931.69;5037548;28;20045;-67
2023/09/08 09:56:43;;;;;;;13.80;8.57;;;;;;;31.79;47.33;96937.41;5057813;28;20040;-67
2023/09/08 09:59:10;;;;;;;12.35;8.85;;;;;;;30.83;49.56;96933.69;5039725;28;20045;-68
2023/09/08 10:01:37;;;;;;;9.85;6.80;;;;;;;31.45;49.32;96925.78;5035313;28;20041;-67
2023/09/08 10:04:03;;;;;;;18.98;9.20;;;;;;;31.77;48.43;96922.22;5045840;28;20533;-69
2023/09/08 10:06:33;;;;;;;11.40;6.50;;;;;;;32.14;48.08;96918.56;5043007;28;20045;-67
2023/09/08 10:09:01;;;;;;;11.18;6.88;;;;;;;32.05;47.75;96927.28;5049458;28;20072;-70
2023/09/08 10:11:30;;;;;;;12.73;8.18;;;;;;;30.85;50.83;96913.41;5049654;28;20044;-66
2023/09/08 10:13:59;;;;;;;10.30;6.97;;;;;;;31.66;49.32;96927.78;5046075;28;20076;-65
2023/09/08 10:16:27;;;;;;;13.45;6.72;;;;;;;31.76;49.00;96926.31;5049883;28;20048;-66
2023/09/08 10:18:54;;;;;;;10.35;7.22;;;;;;;31.62;48.68;96923.13;5054848;28;20074;-66
2023/09/08 10:21:23;;;;;;;10.40;6.82;;;;;;;31.42;49.77;96918.34;5051070;28;20040;-65
2023/09/08 10:24:08;;;;;;;13.60;8.10;;;;;;;31.69;49.88;96921.09;5051132;28;20037;-66
2023/09/08 10:26:36;;;;;;;12.38;8.05;;;;;;;30.94;50.24;96915.34;5030005;28;20041;-67
2023/09/08 10:29:02;;;;;;;10.90;8.20;;;;;;;31.11;50.33;96918.31;5053105;28;20390;-68
2023/09/08 10:31:29;;;;;;;9.85;7.53;;;;;;;31.19;50.53;96913.78;5044331;28;20147;-66
2023/09/08 10:33:56;;;;;;;12.77;7.75;;;;;;;31.23;51.25;96912.25;5047684;28;20116;-67
2023/09/08 10:36:24;;;;;;;10.50;7.10;;;;;;;31.10;50.87;96909.06;5030419;28;20052;-68
2023/09/08 10:38:51;;;;;;;10.63;7.30;;;;;;;31.75;49.91;96902.88;5049567;28;20044;-67
2023/09/08 10:41:27;;;;;;;15.65;8.82;;;;;;;31.91;48.70;96920.47;5056624;28;20036;-66
2023/09/08 10:44:00;;;;;;;13.05;8.65;;;;;;;31.56;49.02;96902.50;5062065;28;20052;-68
2023/09/08 10:46:30;;;;;;;13.93;8.00;;;;;;;31.08;50.65;96903.13;5046346;28;20131;-68
2023/09/08 10:49:07;;;;;;;14.05;8.68;;;;;;;30.18;53.20;96905.69;5048154;28;20049;-66
2023/09/08 10:51:33;;;;;;;18.17;9.88;;;;;;;31.39;51.12;96901.56;5042879;28;20398;-66
2023/09/08 10:53:58;;;;;;;12.73;7.40;;;;;;;31.80;49.14;96893.66;5050726;28;20124;-66
2023/09/08 10:56:51;;;;;;;9.68;7.53;;;;;;;31.12;50.43;96888.75;5029968;28;20077;-66
2023/09/08 10:59:17;;;;;;;13.52;8.68;;;;;;;30.56;52.37;96891.75;5039273;28;20057;-67
2023/09/08 11:01:42;;;;;;;9.00;7.47;;;;;;;30.38;53.61;96887.19;5046943;28;20065;-65
2023/09/08 11:04:10;;;;;;;13.05;8.20;;;;;;;30.23;55.32;96884.41;5053732;28;20118;-67
2023/09/08 11:06:36;;;;;;;9.55;7.95;;;;;;;29.65;58.41;96879.25;5028015;28;20177;-65
2023/09/08 11:09:08;;;;;;;14.27;8.13;;;;;;;29.53;59.54;96869.88;5053739;28;20036;-67
2023/09/08 11:11:33;;;;;;;10.25;7.72;;;;;;;29.73;59.92;96882.47;5053707;28;20045;-66
2023/09/08 11:13:59;;;;;;;11.38;7.63;;;;;;;29.42;60.38;96871.72;5053718;28;20461;-66
2023/09/08 11:16:29;;;;;;;14.98;9.35;;;;;;;29.34;60.98;96866.50;5047984;28;20514;-69
2023/09/08 11:18:54;;;;;;;13.70;7.72;;;;;;;29.27;60.29;96874.59;5054206;28;20045;-67